This is the latest recevied weather packets stored in our database for station/object E7HQ-1. If no packets are shown the sender has not sent any weather packets the latest 10 day(s).
| Time | Temp. | Humidity | Pressure | Rain* | Wind** | Luminosity | Snow |
|---|---|---|---|---|---|---|---|
| 1778007537 | 13.89° C | 50% | 1025.9 hPa | - | - | - | - |
| 1778006637 | 13.89° C | 51% | 1026 hPa | - | - | - | - |
| 1778005737 | 13.33° C | 53% | 1026 hPa | - | - | - | - |
| 1778004836 | 13.33° C | 51% | 1026.1 hPa | - | - | - | - |
| 1778003936 | 13.33° C | 50% | 1026 hPa | - | - | - | - |
| 1778003036 | 13.33° C | 51% | 1026.1 hPa | - | - | - | - |
| 1778002140 | 12.78° C | 53% | 1026 hPa | - | - | - | - |
| 1778001239 | 13.33° C | 51% | 1026 hPa | - | - | - | - |
| 1778000339 | 13.89° C | 48% | 1025.9 hPa | - | - | - | - |
| 1777999439 | 15° C | 43% | 1025.7 hPa | - | - | - | - |
| 1777998539 | 16.11° C | 39% | 1025.7 hPa | - | - | - | - |
| 1777997639 | 17.22° C | 37% | 1025.6 hPa | - | - | - | - |
| 1777996738 | 17.22° C | 36% | 1025.6 hPa | - | - | - | - |
| 1777995838 | 17.22° C | 36% | 1025.5 hPa | - | - | - | - |
| 1777994938 | 17.78° C | 35% | 1025.4 hPa | - | - | - | - |
| 1777994038 | 18.33° C | 34% | 1025.4 hPa | - | - | - | - |
| 1777993138 | 18.89° C | 33% | 1025.4 hPa | - | - | - | - |
| 1777992237 | 18.89° C | 33% | 1025.4 hPa | - | - | - | - |
| 1777991337 | 19.44° C | 32% | 1025.4 hPa | - | - | - | - |
| 1777990437 | 20° C | 30% | 1025.3 hPa | - | - | - | - |
| 1777989537 | 21.11° C | 23% | 1025.2 hPa | - | - | - | - |
| 1777988636 | 22.78° C | 21% | 1025.1 hPa | - | - | - | - |
| 1777987736 | 22.78° C | 21% | 1025.2 hPa | - | - | - | - |
| 1777986836 | 21.67° C | 20% | 1025.2 hPa | - | - | - | - |
| 1777985936 | 22.78° C | 19% | 1025.3 hPa | - | - | - | - |
* Rain since midnight (hover to see other rain measurements)
** Current wind speed in m/s (hover to see current wind gust speed)